ADDS METAR Data INFO
IDs: Format: Raw Decoded Include TAF

Data at: 1328 UTC 19 Jul 2018

KMJX 191256Z AUTO 04007KT 10SM CLR 22/14 A3009 RMK AO2 SLP195 T02220144
KMJX 191156Z AUTO 35005KT 10SM CLR 19/13 A3008 RMK AO2 SLP190 T01890133 10189 20144 53012
KMJX 191056Z AUTO 35003KT 10SM CLR 17/12 A3006 RMK AO2 SLP185 T01670122
KMJX 190956Z AUTO 33003KT 10SM CLR 15/12 A3005 RMK AO2 SLP181 T01500122
KMJX 190856Z AUTO 30003KT 10SM CLR 16/12 A3004 RMK AO2 SLP178 T01610122 51009
KMJX 190756Z AUTO 33003KT 10SM CLR 17/13 A3003 RMK AO2 SLP175 T01670128
KMJX 190656Z AUTO 34006KT 10SM CLR 17/13 A3003 RMK AO2 SLP172 T01720128
KMJX 190556Z AUTO 33006KT 10SM CLR 18/13 A3002 RMK AO2 SLP169 T01780133 10261 20172 51013
KMJX 190456Z AUTO 33006KT 10SM CLR 19/13 A3000 RMK AO2 SLP165 T01890133 403000172
KMJX 190356Z AUTO 32005KT 10SM CLR 19/14 A2999 RMK AO2 SLP161 T01940144
KMJX 190256Z AUTO 00000KT 10SM CLR 18/16 A2998 RMK AO2 SLP156 T01830161 53015
KMJX 190156Z AUTO 00000KT 10SM CLR 19/17 A2997 RMK AO2 SLP152 T01890167
KMJX 190056Z AUTO 00000KT 10SM CLR 21/18 A2994 RMK AO2 SLP145 T02110178
KMJX 182356Z AUTO 00000KT 10SM CLR 27/17 A2994 RMK AO2 SLP141 T02670172 10300 20267 53013
KMJX 182256Z AUTO 33006KT 10SM CLR 29/14 A2991 RMK AO2 SLP133 T02890139 TSNO
KMJX 182156Z AUTO 36007KT 10SM FEW065 29/15 A2990 RMK AO2 SLP128 T02890150
KMJX 182056Z AUTO VRB03KT 10SM SCT060 29/16 A2990 RMK AO2 SLP129 T02940156 58003
KMJX 181956Z AUTO 30004KT 10SM SCT060 BKN090 29/16 A2990 RMK AO2 SLP129 T02890161
KMJX 181856Z AUTO 06006KT 10SM BKN060 29/15 A2991 RMK AO2 SLP132 T02890150
KMJX 181756Z AUTO 04010G15KT 10SM SCT055 SCT080 28/17 A2991 RMK AO2 SLP132 T02830167 10289 20206 56001
KMJX 181656Z AUTO 36008KT 10SM OVC047 27/17 A2991 RMK AO2 SLP132 T02720172
KMJX 181556Z AUTO 34010G15KT 10SM BKN039 BKN050 27/18 A2991 RMK AO2 SLP132 T02670178
KMJX 181456Z AUTO 01008KT 350V050 10SM FEW001 26/18 A2991 RMK AO2 SLP133 T02610178 51003
KMJX 181451Z AUTO 01012KT 10SM SCT001 26/18 A2991 RMK AO2
KMJX 181430Z AUTO 36007KT 10SM BKN001 25/18 A2991 RMK AO2
KMJX 181421Z AUTO 36009KT 10SM SCT001 25/18 A2991 RMK AO2
KMJX 181356Z AUTO 35010KT 10SM CLR 24/17 A2991 RMK AO2 SLP131 T02390172
KMJX 181256Z AUTO 34008KT 10SM CLR 22/17 A2990 RMK AO2 SLP130 T02170167
KMJX 181156Z AUTO 34006KT 10SM CLR 21/17 A2988 RMK AO2 SLP124 70198 T02060172 10217 20183 53009
KMJX 181056Z AUTO 33005KT 10SM CLR 19/17 A2987 RMK AO2 SLP119 T01890167
KMJX 180956Z AUTO 33004KT 10SM SCT070 19/18 A2987 RMK AO2 SLP119 T01890178
KMJX 180856Z AUTO 33005KT 10SM SCT065 19/18 A2985 RMK AO2 SLP114 T01940183 53013 TSNO
KMJX 180756Z AUTO 34005KT 10SM CLR 21/20 A2984 RMK AO2 SLP110 T02060200
KMJX 180656Z AUTO 33004KT 10SM FEW003 BKN046 BKN055 21/21 A2982 RMK AO2 SLP104 T02110211
KMJX 180647Z AUTO 31004KT 10SM SCT003 SCT046 BKN055 21/21 A2983 RMK AO2
KMJX 180617Z AUTO 33004KT 3SM BR OVC003 22/21 A2982 RMK AO2
KMJX 180610Z AUTO 33005KT 1 1/4SM BR OVC003 22/21 A2982 RMK AO2
KMJX 180556Z AUTO 31004KT 1SM BR OVC003 22/22 A2982 RMK AO2 SLP101 T02170217 10222 20217 58006
KMJX 180549Z AUTO 32004KT 1SM BR OVC003 22/21 A2982 RMK AO2
KMJX 180534Z AUTO 31005KT 1/2SM FG OVC003 22/21 A2982 RMK AO2
KMJX 180525Z AUTO 31004KT 1SM BR OVC003 22/21 A2982 RMK AO2
KMJX 180506Z AUTO 34004KT 1/2SM FG OVC003 22/22 A2982 RMK AO2
KMJX 180456Z AUTO 32003KT 1/4SM FG OVC003 22/22 A2983 RMK AO2 SLP104 T02170217 403610211
KMJX 180452Z AUTO 33003KT 1/4SM FG OVC003 22/21 A2983 RMK AO2 403610211
KMJX 180428Z AUTO 00000KT 1/2SM FG OVC003 22/22 A2983 RMK AO2
KMJX 180416Z AUTO 36003KT 3/4SM BR OVC003 22/22 A2984 RMK AO2
KMJX 180405Z AUTO 00000KT 1 3/4SM BR OVC003 22/22 A2984 RMK AO2 VIS 1V5
KMJX 180356Z AUTO 29004KT 5SM BR OVC003 22/22 A2984 RMK AO2 SLP107 T02170217
KMJX 180337Z AUTO 34004KT 5SM BR OVC003 22/22 A2983 RMK AO2
KMJX 180329Z AUTO 34005KT 2SM BR OVC003 22/22 A2983 RMK AO2
KMJX 180323Z AUTO 34006KT 1SM BR OVC003 22/22 A2983 RMK AO2
KMJX 180302Z AUTO 35004KT 1/2SM FG OVC003 22/22 A2983 RMK AO2
KMJX 180256Z AUTO 33004KT 1SM BR OVC003 22/22 A2984 RMK AO2 SLP108 T02220217 51003
KMJX 180247Z AUTO 32004KT 1 3/4SM BR OVC003 22/22 A2984 RMK AO2
KMJX 180203Z AUTO 00000KT 7SM OVC003 22/22 A2984 RMK AO2
KMJX 180156Z AUTO 00000KT 2 1/2SM BR OVC003 22/22 A2984 RMK AO2 SLP108 T02220217
KMJX 180151Z AUTO 00000KT 1 1/2SM BR OVC003 22/22 A2984 RMK AO2
KMJX 180134Z AUTO 00000KT 1SM BR OVC003 22/22 A2983 RMK AO2